createdAt,value
2017-12-11T00:00:04.570Z,51
2017-12-11T00:15:07.641Z,51
2017-12-11T00:30:05.830Z,50
2017-12-11T00:45:04.888Z,50
2017-12-11T01:00:04.825Z,50
2017-12-11T01:15:04.717Z,50
2017-12-11T01:30:12.085Z,50
2017-12-11T01:45:04.969Z,51
2017-12-11T02:00:04.864Z,50
2017-12-11T02:15:04.741Z,50
2017-12-11T02:30:07.917Z,48
2017-12-11T02:45:05.893Z,50
2017-12-11T03:00:04.826Z,51
2017-12-11T03:15:04.939Z,51
2017-12-11T03:30:04.833Z,24
2017-12-11T03:45:06.234Z,50
2017-12-11T04:00:06.536Z,51
2017-12-11T04:15:04.435Z,51
2017-12-11T04:30:07.646Z,55
2017-12-11T04:45:07.654Z,52
2017-12-11T05:00:05.557Z,54
2017-12-11T05:15:08.173Z,56
2017-12-11T05:30:04.516Z,56
2017-12-11T05:45:04.908Z,60
2017-12-11T06:00:04.372Z,60
2017-12-11T06:15:04.837Z,59
2017-12-11T06:30:05.033Z,67
2017-12-11T06:45:04.466Z,64
2017-12-11T07:00:04.847Z,70
2017-12-11T07:15:06.319Z,69
2017-12-11T07:30:07.845Z,66
2017-12-11T07:45:06.262Z,66
2017-12-11T08:00:05.117Z,62
2017-12-11T08:15:04.455Z,68
2017-12-11T08:30:04.685Z,55
2017-12-11T08:45:05.064Z,55
2017-12-11T09:00:20.300Z,57
2017-12-11T09:15:06.283Z,58
2017-12-11T09:30:05.424Z,60
2017-12-11T09:45:04.358Z,56
2017-12-11T10:00:06.260Z,58
2017-12-11T10:15:05.707Z,58
2017-12-11T10:30:05.572Z,63
2017-12-11T10:45:05.528Z,59
2017-12-11T11:00:04.442Z,58
2017-12-11T11:15:05.405Z,60
2017-12-11T11:30:07.750Z,59
2017-12-11T11:45:06.339Z,60
2017-12-11T12:00:04.332Z,59
2017-12-11T12:15:06.235Z,63
2017-12-11T12:30:05.957Z,61
2017-12-11T12:45:04.342Z,61
2017-12-11T13:00:04.791Z,56
2017-12-11T13:15:04.687Z,57
2017-12-11T13:30:05.175Z,56
2017-12-11T13:45:04.657Z,57
2017-12-11T14:00:05.016Z,57
2017-12-11T14:15:11.057Z,55
2017-12-11T14:30:08.490Z,56
2017-12-11T14:45:04.959Z,55
2017-12-11T15:00:04.327Z,55
2017-12-11T15:15:05.168Z,59
2017-12-11T15:30:04.785Z,57
2017-12-11T15:45:06.315Z,58
2017-12-11T16:00:05.207Z,55
2017-12-11T16:15:04.635Z,54
2017-12-11T16:30:04.569Z,54
2017-12-11T16:45:04.511Z,55
2017-12-11T17:00:04.870Z,54
2017-12-11T17:15:07.518Z,55
2017-12-11T17:30:05.924Z,55
2017-12-11T17:45:05.426Z,57
2017-12-11T18:00:05.551Z,58
2017-12-11T18:15:06.231Z,53
2017-12-11T18:30:04.925Z,54
2017-12-11T18:45:04.355Z,54
2017-12-11T19:00:05.812Z,54
2017-12-11T19:15:05.718Z,55
2017-12-11T19:30:04.857Z,52
2017-12-11T19:45:05.349Z,53
2017-12-11T20:00:12.437Z,54
2017-12-11T20:15:04.802Z,54
2017-12-11T20:30:04.469Z,56
2017-12-11T20:45:04.495Z,55
2017-12-11T21:00:05.159Z,55
2017-12-11T21:15:05.265Z,55
2017-12-11T21:30:06.224Z,55
2017-12-11T21:45:04.827Z,55
2017-12-11T22:00:08.372Z,56
2017-12-11T22:15:04.816Z,54
2017-12-11T22:30:04.478Z,55
2017-12-11T22:45:04.549Z,55
2017-12-11T23:00:04.663Z,54
2017-12-11T23:15:06.299Z,54
2017-12-11T23:30:04.565Z,51
2017-12-11T23:47:16.290Z,54
